F/V Le Natif 2 — FKVW — position and weather

sailwx.info

Track history (hours):
 
Tides and Currents Weather Stations Pressure Air Temp Water Temp Dewpoint Dewpoint Depression Visibility Wind Speed Wind Dir Waves Ship Positions

F/V Le Natif 2

Last reported at 2015-Jul-31 01:33 UTC. Time now 2015-Aug-01 20:15 UTC.
Position N 46°42' W 001°57'.

Length 16 m.

Type: Fishing. MMSI: 228131600.

Date/timePositionNaut miles runAvg speedWind from/ knotsBaromVisibWave heightAir tempDewpointWater temp
2015-Jul-31 01:33N 46°42' W 001°57'0 0.1
2015-Jul-31 00:33N 46°42' W 001°56'1 0.6
2015-Jul-30 23:33N 46°42' W 001°57'3 2.6
2015-Jul-30 22:33N 46°40' W 001°60'0 0.5
2015-Jul-30 21:33N 46°40' W 002°00'6 5.7
2015-Jul-30 20:33N 46°40' W 002°09'7 5.9
2015-Jul-30 19:22N 46°40' W 002°19'5 0.3
2015-Jul-30 03:27N 46°45' W 002°18'7 7.5
2015-Jul-30 02:33N 46°43' W 002°08'8 7.5
2015-Jul-30 01:33N 46°41' W 001°58'1 0.1
2015-Jul-29 15:28N 46°42' W 001°56'0 0.0
2015-Jul-29 14:33N 46°42' W 001°56'8 7.8
2015-Jul-29 13:33N 46°43' W 002°08'23 2.8
2015-Jul-29 05:19N 46°50' W 002°40'6 8.0
2015-Jul-29 04:32N 46°46' W 002°32'8 8.2
2015-Jul-29 03:33N 46°45' W 002°21'8 8.0
2015-Jul-29 02:34N 46°43' W 002°09'8 8.1
2015-Jul-29 01:33N 46°41' W 001°58'1 0.2
2015-Jul-28 18:10N 46°42' W 001°56'0 0.0
2015-Jul-28 17:33N 46°42' W 001°56'0 0.4
2015-Jul-28 16:33N 46°42' W 001°57'9 8.9
2015-Jul-28 15:33N 46°43' W 002°10'4 0.3
2015-Jul-28 03:15N 46°45' W 002°15'5 7.2
2015-Jul-28 02:32N 46°43' W 002°08'7 7.1
2015-Jul-28 01:33N 46°41' W 001°58'1 0.1
2015-Jul-27 16:34N 46°42' W 001°57'0 0.1
2015-Jul-27 15:34N 46°42' W 001°56'0 0.4
2015-Jul-27 14:33N 46°42' W 001°57'9 8.8
2015-Jul-27 13:33N 46°44' W 002°09'24 6.9
2015-Jul-27 10:10N 46°52' W 002°42'17 2.7
2015-Jul-27 04:04N 46°45' W 002°19'4 7.0
2015-Jul-27 03:28N 46°44' W 002°14'7 7.1
2015-Jul-27 02:33N 46°42' W 002°05'5 5.5
2015-Jul-27 01:33N 46°42' W 001°57'0 0.0
2015-Jul-26 18:33N 46°42' W 001°56'0 0.0
2015-Jul-26 17:33N 46°42' W 001°56'7 6.7
2015-Jul-26 16:33N 46°43' W 002°06'9 0.7
2015-Jul-26 03:13N 46°45' W 002°19'5 8.3
2015-Jul-26 02:33N 46°44' W 002°12'8 8.2
2015-Jul-26 01:33N 46°41' W 002°00'2 0.1
2015-Jul-24 09:27N 46°42' W 001°57'0 0.0
2015-Jul-24 08:33N 46°42' W 001°57'0 0.0
2015-Jul-24 07:33N 46°42' W 001°57'0 0.0
2015-Jul-24 06:33N 46°42' W 001°57'0 0.0
2015-Jul-24 05:33N 46°42' W 001°56'0 0.0
2015-Jul-24 04:30N 46°42' W 001°56'0 0.0
2015-Jul-24 03:33N 46°42' W 001°56'2 1.7
2015-Jul-24 02:33N 46°41' W 001°58'5 4.7
2015-Jul-24 01:33N 46°36' W 002°01'3 3.4
2015-Jul-24 00:33N 46°34' W 001°57'2 1.8
2015-Jul-23 23:33N 46°35' W 001°60'2 2.4
2015-Jul-23 22:33N 46°37' W 002°01'3 3.4
2015-Jul-23 21:33N 46°34' W 001°58'3 3.3
2015-Jul-23 20:33N 46°32' W 001°55'0 0.4
2015-Jul-23 19:33N 46°31' W 001°55'4 3.6
2015-Jul-23 18:33N 46°34' W 001°58'3 3.3
2015-Jul-23 17:33N 46°37' W 002°01'3 3.2
2015-Jul-23 16:33N 46°35' W 001°58'3 3.4
2015-Jul-23 15:33N 46°32' W 001°54'6 5.7
2015-Jul-23 14:33N 46°29' W 001°48'1 1.4
2015-Jul-23 13:33N 46°30' W 001°47'0 0.0
2015-Jul-23 12:33N 46°30' W 001°47'2 1.7
2015-Jul-23 11:33N 46°28' W 001°47'4 3.7
2015-Jul-23 10:33N 46°24' W 001°47'5 4.5
2015-Jul-23 09:33N 46°20' W 001°46'2 1.9
2015-Jul-23 08:33N 46°21' W 001°48'2 2.4
2015-Jul-23 07:33N 46°20' W 001°45'3 3.3
2015-Jul-23 06:33N 46°17' W 001°43'3 3.5
2015-Jul-23 05:33N 46°13' W 001°43'12 1.9
2015-Jul-22 23:11N 46°04' W 001°54'  
Track history (hours):
 
Tides and Currents Weather Stations Pressure Air Temp Water Temp Dewpoint Dewpoint Depression Visibility Wind Speed Wind Dir Waves Ship Positions

F/V Le Natif 2

Last reported at 2015-Jul-31 01:33 UTC. Time now 2015-Aug-01 20:15 UTC.
Position N 46°42' W 001°57'.

Length 16 m.

Type: Fishing. MMSI: 228131600.

Date/timePositionNaut miles runAvg speedWind from/ knotsBaromVisibWave heightAir tempDewpointWater temp
2015-Jul-31 01:33N 46°42' W 001°57'0 0.1
2015-Jul-31 00:33N 46°42' W 001°56'1 0.6
2015-Jul-30 23:33N 46°42' W 001°57'3 2.6
2015-Jul-30 22:33N 46°40' W 001°60'0 0.5
2015-Jul-30 21:33N 46°40' W 002°00'6 5.7
2015-Jul-30 20:33N 46°40' W 002°09'7 5.9
2015-Jul-30 19:22N 46°40' W 002°19'5 0.3
2015-Jul-30 03:27N 46°45' W 002°18'7 7.5
2015-Jul-30 02:33N 46°43' W 002°08'8 7.5
2015-Jul-30 01:33N 46°41' W 001°58'1 0.1
2015-Jul-29 15:28N 46°42' W 001°56'0 0.0
2015-Jul-29 14:33N 46°42' W 001°56'8 7.8
2015-Jul-29 13:33N 46°43' W 002°08'23 2.8
2015-Jul-29 05:19N 46°50' W 002°40'6 8.0
2015-Jul-29 04:32N 46°46' W 002°32'8 8.2
2015-Jul-29 03:33N 46°45' W 002°21'8 8.0
2015-Jul-29 02:34N 46°43' W 002°09'8 8.1
2015-Jul-29 01:33N 46°41' W 001°58'1 0.2
2015-Jul-28 18:10N 46°42' W 001°56'0 0.0
2015-Jul-28 17:33N 46°42' W 001°56'0 0.4
2015-Jul-28 16:33N 46°42' W 001°57'9 8.9
2015-Jul-28 15:33N 46°43' W 002°10'4 0.3
2015-Jul-28 03:15N 46°45' W 002°15'5 7.2
2015-Jul-28 02:32N 46°43' W 002°08'7 7.1
2015-Jul-28 01:33N 46°41' W 001°58'1 0.1
2015-Jul-27 16:34N 46°42' W 001°57'0 0.1
2015-Jul-27 15:34N 46°42' W 001°56'0 0.4
2015-Jul-27 14:33N 46°42' W 001°57'9 8.8
2015-Jul-27 13:33N 46°44' W 002°09'24 6.9
2015-Jul-27 10:10N 46°52' W 002°42'17 2.7
2015-Jul-27 04:04N 46°45' W 002°19'4 7.0
2015-Jul-27 03:28N 46°44' W 002°14'7 7.1
2015-Jul-27 02:33N 46°42' W 002°05'5 5.5
2015-Jul-27 01:33N 46°42' W 001°57'0 0.0
2015-Jul-26 18:33N 46°42' W 001°56'0 0.0
2015-Jul-26 17:33N 46°42' W 001°56'7 6.7
2015-Jul-26 16:33N 46°43' W 002°06'9 0.7
2015-Jul-26 03:13N 46°45' W 002°19'5 8.3
2015-Jul-26 02:33N 46°44' W 002°12'8 8.2
2015-Jul-26 01:33N 46°41' W 002°00'2 0.1
2015-Jul-24 09:27N 46°42' W 001°57'0 0.0
2015-Jul-24 08:33N 46°42' W 001°57'0 0.0
2015-Jul-24 07:33N 46°42' W 001°57'0 0.0
2015-Jul-24 06:33N 46°42' W 001°57'0 0.0
2015-Jul-24 05:33N 46°42' W 001°56'0 0.0
2015-Jul-24 04:30N 46°42' W 001°56'0 0.0
2015-Jul-24 03:33N 46°42' W 001°56'2 1.7
2015-Jul-24 02:33N 46°41' W 001°58'5 4.7
2015-Jul-24 01:33N 46°36' W 002°01'3 3.4
2015-Jul-24 00:33N 46°34' W 001°57'2 1.8
2015-Jul-23 23:33N 46°35' W 001°60'2 2.4
2015-Jul-23 22:33N 46°37' W 002°01'3 3.4
2015-Jul-23 21:33N 46°34' W 001°58'3 3.3
2015-Jul-23 20:33N 46°32' W 001°55'0 0.4
2015-Jul-23 19:33N 46°31' W 001°55'4 3.6
2015-Jul-23 18:33N 46°34' W 001°58'3 3.3
2015-Jul-23 17:33N 46°37' W 002°01'3 3.2
2015-Jul-23 16:33N 46°35' W 001°58'3 3.4
2015-Jul-23 15:33N 46°32' W 001°54'6 5.7
2015-Jul-23 14:33N 46°29' W 001°48'1 1.4
2015-Jul-23 13:33N 46°30' W 001°47'0 0.0
2015-Jul-23 12:33N 46°30' W 001°47'2 1.7
2015-Jul-23 11:33N 46°28' W 001°47'4 3.7
2015-Jul-23 10:33N 46°24' W 001°47'5 4.5
2015-Jul-23 09:33N 46°20' W 001°46'2 1.9
2015-Jul-23 08:33N 46°21' W 001°48'2 2.4
2015-Jul-23 07:33N 46°20' W 001°45'3 3.3
2015-Jul-23 06:33N 46°17' W 001°43'3 3.5
2015-Jul-23 05:33N 46°13' W 001°43'12 1.9
2015-Jul-22 23:11N 46°04' W 001°54'  

Dump ship's entire track history